createdAt,value
2023-03-15T00:02:09.720Z,4.13
2023-03-15T00:04:42.573Z,1.10
2023-03-15T00:07:15.050Z,2.38
2023-03-15T00:09:47.819Z,4.22
2023-03-15T00:12:22.942Z,3.95
2023-03-15T00:14:56.009Z,2.08
2023-03-15T00:17:28.621Z,5.38
2023-03-15T00:20:01.953Z,2.15
2023-03-15T00:22:34.565Z,2.22
2023-03-15T00:25:07.821Z,4.93
2023-03-15T00:27:40.393Z,4.30
2023-03-15T00:30:13.570Z,4.82
2023-03-15T00:32:46.131Z,4.13
2023-03-15T00:35:19.046Z,4.47
2023-03-15T00:37:56.156Z,7.85
2023-03-15T00:40:28.951Z,3.90
2023-03-15T00:43:01.448Z,7.53
2023-03-15T00:45:34.249Z,3.92
2023-03-15T00:48:06.822Z,7.38
2023-03-15T00:50:39.603Z,7.38
2023-03-15T00:53:12.092Z,3.60
2023-03-15T00:55:44.890Z,4.47
2023-03-15T00:58:17.422Z,3.92
2023-03-15T01:00:51.920Z,13.00
2023-03-15T01:03:24.378Z,6.18
2023-03-15T01:05:57.175Z,8.77
2023-03-15T01:08:29.666Z,4.25
2023-03-15T01:11:07.673Z,11.00
2023-03-15T01:13:40.693Z,10.07
2023-03-15T01:16:14.749Z,4.47
2023-03-15T01:18:47.785Z,7.60
2023-03-15T01:21:21.985Z,4.93
2023-03-15T01:23:54.854Z,8.48
2023-03-15T01:26:27.677Z,2.85
2023-03-15T01:29:00.474Z,5.25
2023-03-15T01:31:34.216Z,7.35
2023-03-15T01:34:06.808Z,10.63
2023-03-15T01:36:39.619Z,5.07
2023-03-15T01:39:12.093Z,4.78
2023-03-15T01:41:44.984Z,4.72
2023-03-15T01:44:19.260Z,3.63
2023-03-15T01:46:52.886Z,3.13
2023-03-15T01:49:33.491Z,6.40
2023-03-15T01:52:15.609Z,11.98
2023-03-15T01:55:11.397Z,7.00
2023-03-15T01:57:50.139Z,7.10
2023-03-15T02:00:22.778Z,3.55
2023-03-15T02:03:08.103Z,8.77
2023-03-15T02:05:46.296Z,5.38
2023-03-15T02:08:19.693Z,16.58
2023-03-15T02:10:54.717Z,9.65
2023-03-15T02:13:29.832Z,4.80
2023-03-15T02:16:06.753Z,7.93
2023-03-15T02:18:39.679Z,14.07
2023-03-15T02:21:19.616Z,12.57
2023-03-15T02:24:17.570Z,3.17
2023-03-15T02:26:56.021Z,10.57
2023-03-15T02:29:29.889Z,5.65
2023-03-15T02:32:06.099Z,6.32
2023-03-15T02:34:38.890Z,5.57
2023-03-15T02:37:11.377Z,10.55
2023-03-15T02:39:44.173Z,12.98
2023-03-15T02:42:17.789Z,9.40
2023-03-15T02:44:51.568Z,4.38
2023-03-15T02:47:30.440Z,4.72
2023-03-15T02:50:03.375Z,6.32
2023-03-15T02:52:35.909Z,8.38
2023-03-15T02:55:09.384Z,3.92
2023-03-15T02:57:41.833Z,9.52
2023-03-15T03:00:15.131Z,6.53
2023-03-15T03:02:49.182Z,3.38
2023-03-15T03:05:22.347Z,7.70
2023-03-15T03:07:55.207Z,8.55
2023-03-15T03:10:27.986Z,9.73
2023-03-15T03:13:00.453Z,11.60
2023-03-15T03:15:33.233Z,3.47
2023-03-15T03:18:05.842Z,4.60
2023-03-15T03:20:38.771Z,7.80
2023-03-15T03:23:11.264Z,6.72
2023-03-15T03:25:45.835Z,5.72
2023-03-15T03:28:18.312Z,5.15
2023-03-15T03:30:52.928Z,8.98
2023-03-15T03:33:25.473Z,10.90
2023-03-15T03:36:02.335Z,6.32
2023-03-15T03:38:35.010Z,29.00
2023-03-15T03:41:08.824Z,6.35
2023-03-15T03:43:41.480Z,9.32
2023-03-15T03:46:14.408Z,3.88
2023-03-15T03:48:46.941Z,2.65
2023-03-15T03:51:19.685Z,7.25
2023-03-15T03:53:52.208Z,2.83
2023-03-15T03:56:24.979Z,4.85
2023-03-15T03:58:57.502Z,8.98
2023-03-15T04:01:30.270Z,9.75
2023-03-15T04:04:02.781Z,6.40
2023-03-15T04:06:35.910Z,4.50
2023-03-15T04:09:08.634Z,7.20
2023-03-15T04:11:44.631Z,5.25
2023-03-15T04:14:17.119Z,15.68
2023-03-15T04:16:49.918Z,2.65
2023-03-15T04:19:23.360Z,5.90
2023-03-15T04:21:56.403Z,16.25
2023-03-15T04:24:28.895Z,4.28
2023-03-15T04:27:02.319Z,6.47
2023-03-15T04:29:34.973Z,11.82
2023-03-15T04:32:08.595Z,9.73
2023-03-15T04:34:41.304Z,5.90
2023-03-15T04:37:14.045Z,6.82
2023-03-15T04:39:46.518Z,11.50
2023-03-15T04:42:19.604Z,2.35
2023-03-15T04:44:53.867Z,5.40
2023-03-15T04:47:26.627Z,7.32
2023-03-15T04:49:59.105Z,5.20
2023-03-15T04:52:32.134Z,13.13
2023-03-15T04:55:05.000Z,5.75
2023-03-15T04:57:37.795Z,5.65
2023-03-15T05:00:12.184Z,3.00
2023-03-15T05:02:46.098Z,3.85
2023-03-15T05:05:18.731Z,9.25
2023-03-15T05:07:51.817Z,3.40
2023-03-15T05:10:25.418Z,8.30
2023-03-15T05:12:58.210Z,7.75
2023-03-15T05:15:30.798Z,5.47
2023-03-15T05:18:04.156Z,7.72
2023-03-15T05:20:36.682Z,2.15
2023-03-15T05:23:09.495Z,10.90
2023-03-15T05:25:42.332Z,7.53
2023-03-15T05:28:18.408Z,9.30
2023-03-15T05:30:54.672Z,9.90
2023-03-15T05:33:27.481Z,14.27
2023-03-15T05:36:01.028Z,7.00
2023-03-15T05:38:33.847Z,5.57
2023-03-15T05:41:06.906Z,7.28
2023-03-15T05:43:39.699Z,10.48
2023-03-15T05:46:12.265Z,5.20
2023-03-15T05:48:45.072Z,7.20
2023-03-15T05:51:17.649Z,5.47
2023-03-15T05:53:50.644Z,4.18
2023-03-15T05:56:23.133Z,8.40
2023-03-15T05:58:56.207Z,6.20
2023-03-15T06:01:28.996Z,8.10
2023-03-15T06:04:01.869Z,5.90
2023-03-15T06:06:34.395Z,8.88
2023-03-15T06:09:07.192Z,4.40
2023-03-15T06:11:40.050Z,9.35
2023-03-15T06:14:13.028Z,8.55
2023-03-15T06:16:45.585Z,12.20
2023-03-15T06:19:18.514Z,4.78
2023-03-15T06:21:51.454Z,6.80
2023-03-15T06:24:25.206Z,8.27
2023-03-15T06:26:57.710Z,20.83
2023-03-15T06:29:30.816Z,6.68
2023-03-15T06:32:03.990Z,8.18
2023-03-15T06:34:37.210Z,2.85
2023-03-15T06:37:09.737Z,6.15
2023-03-15T06:39:42.642Z,4.75
2023-03-15T06:42:15.124Z,8.38
2023-03-15T06:44:49.627Z,5.45
2023-03-15T06:47:23.310Z,10.13
2023-03-15T06:49:56.957Z,7.00
2023-03-15T06:52:29.764Z,8.80
2023-03-15T06:55:02.832Z,10.25
2023-03-15T06:57:35.350Z,6.13
2023-03-15T07:00:11.385Z,4.97
2023-03-15T07:02:44.034Z,5.47
2023-03-15T07:05:16.957Z,3.78
2023-03-15T07:07:49.501Z,12.60
2023-03-15T07:10:22.269Z,6.53
2023-03-15T07:12:54.807Z,4.88
2023-03-15T07:15:28.706Z,6.47
2023-03-15T07:18:01.169Z,11.95
2023-03-15T07:20:37.377Z,6.93
2023-03-15T07:23:10.213Z,5.03
2023-03-15T07:25:54.284Z,5.70
2023-03-15T07:28:28.293Z,4.97
2023-03-15T07:31:03.961Z,10.85
2023-03-15T07:33:37.675Z,19.27
2023-03-15T07:36:10.478Z,14.48
2023-03-15T07:38:43.432Z,13.98
2023-03-15T07:41:16.514Z,6.30
2023-03-15T07:43:49.074Z,6.40
2023-03-15T07:46:21.896Z,3.80
2023-03-15T07:48:54.408Z,7.18
2023-03-15T07:51:27.592Z,13.85
2023-03-15T07:54:00.120Z,4.13
2023-03-15T07:56:32.900Z,8.48
2023-03-15T07:59:05.577Z,7.63
2023-03-15T08:01:40.328Z,11.02
2023-03-15T08:04:12.928Z,3.75
2023-03-15T08:06:45.721Z,5.25
2023-03-15T08:09:18.231Z,8.60
2023-03-15T08:11:51.177Z,6.32
2023-03-15T08:14:24.645Z,8.05
2023-03-15T08:17:53.686Z,5.45
2023-03-15T08:20:29.412Z,6.07
2023-03-15T08:23:02.742Z,8.85
2023-03-15T08:25:36.622Z,1.48
2023-03-15T08:28:09.558Z,6.80
2023-03-15T08:30:42.066Z,7.10
2023-03-15T08:33:14.902Z,8.52
2023-03-15T08:35:52.784Z,6.03
2023-03-15T08:38:26.278Z,17.05
2023-03-15T08:40:59.313Z,7.15
2023-03-15T08:43:34.174Z,9.35
2023-03-15T08:46:06.768Z,4.10
2023-03-15T08:48:39.625Z,9.60
2023-03-15T08:51:13.482Z,9.30
2023-03-15T08:53:46.346Z,10.70
2023-03-15T08:56:19.565Z,3.92
2023-03-15T08:58:52.329Z,7.80
2023-03-15T09:01:24.873Z,5.15
2023-03-15T09:03:57.728Z,10.18
2023-03-15T09:06:30.220Z,10.85
2023-03-15T09:09:03.761Z,6.45
2023-03-15T09:11:36.291Z,10.73
2023-03-15T09:14:09.038Z,8.63
2023-03-15T09:16:41.643Z,9.63
2023-03-15T09:19:14.528Z,14.85
2023-03-15T09:21:47.303Z,7.55
2023-03-15T09:24:20.116Z,8.75
2023-03-15T09:26:52.599Z,6.65
2023-03-15T09:29:25.426Z,6.32
2023-03-15T09:31:58.301Z,6.07
2023-03-15T09:34:39.952Z,5.75
2023-03-15T09:37:14.291Z,5.65
2023-03-15T09:39:47.116Z,13.13
2023-03-15T09:42:29.421Z,6.32
2023-03-15T09:45:23.162Z,14.57
2023-03-15T09:48:05.713Z,3.83
2023-03-15T09:50:51.355Z,6.88
2023-03-15T09:53:40.242Z,5.93
2023-03-15T09:56:32.168Z,7.43
2023-03-15T09:59:06.150Z,12.02
2023-03-15T10:01:42.005Z,9.05
2023-03-15T10:04:31.983Z,8.45
2023-03-15T10:07:12.019Z,7.72
2023-03-15T10:09:46.688Z,4.90
2023-03-15T10:12:31.797Z,5.25
2023-03-15T10:15:37.991Z,3.60
2023-03-15T10:18:29.885Z,4.78
2023-03-15T10:21:13.101Z,10.30
2023-03-15T10:23:55.145Z,11.32
2023-03-15T10:26:36.318Z,10.90
2023-03-15T10:29:21.052Z,12.40
2023-03-15T10:31:55.224Z,9.50
2023-03-15T10:34:28.172Z,10.52
2023-03-15T10:37:00.704Z,5.75
2023-03-15T10:39:33.473Z,11.23
2023-03-15T10:42:06.057Z,7.68
2023-03-15T10:44:38.857Z,9.73
2023-03-15T10:47:24.059Z,8.23
2023-03-15T10:49:59.465Z,7.68
2023-03-15T10:52:35.408Z,6.10
2023-03-15T10:55:15.751Z,11.27
2023-03-15T10:57:55.522Z,7.38
2023-03-15T11:00:36.805Z,5.90
2023-03-15T11:03:22.524Z,3.47
2023-03-15T11:05:57.823Z,7.03
2023-03-15T11:08:40.686Z,10.38
2023-03-15T11:11:13.513Z,9.88
2023-03-15T11:13:59.538Z,7.20
2023-03-15T11:16:37.789Z,4.47
2023-03-15T11:19:17.237Z,6.97
2023-03-15T11:21:51.457Z,7.18
2023-03-15T11:24:30.416Z,6.65
2023-03-15T11:27:10.946Z,5.60
2023-03-15T11:29:48.627Z,7.43
2023-03-15T11:32:25.389Z,7.60
2023-03-15T11:35:05.451Z,11.00
2023-03-15T11:40:48.924Z,4.72
2023-03-15T11:43:29.813Z,13.68
2023-03-15T11:46:12.047Z,13.88
2023-03-15T11:48:50.550Z,5.68
2023-03-15T11:51:23.776Z,5.85
2023-03-15T11:54:08.739Z,6.80
2023-03-15T11:56:44.258Z,5.82
2023-03-15T11:59:30.597Z,4.90
2023-03-15T12:02:28.909Z,3.58
2023-03-15T12:05:17.695Z,8.23
2023-03-15T12:08:00.720Z,2.60
2023-03-15T12:10:42.465Z,11.35
2023-03-15T12:13:26.060Z,7.93
2023-03-15T12:15:59.349Z,4.28
2023-03-15T12:18:44.212Z,6.82
2023-03-15T12:21:21.860Z,11.80
2023-03-15T12:24:28.842Z,9.50
2023-03-15T12:27:05.499Z,7.00
2023-03-15T12:29:38.301Z,11.38
2023-03-15T12:32:17.170Z,11.27
2023-03-15T12:34:54.002Z,11.13
2023-03-15T12:37:43.364Z,8.95
2023-03-15T12:40:15.844Z,8.25
2023-03-15T12:42:48.574Z,7.88
2023-03-15T12:45:21.103Z,7.85
2023-03-15T12:47:53.820Z,8.68
2023-03-15T12:50:44.746Z,6.40
2023-03-15T12:53:32.331Z,4.53
2023-03-15T12:56:25.567Z,3.53
2023-03-15T12:59:20.149Z,7.65
2023-03-15T13:01:53.166Z,11.13
2023-03-15T13:04:28.325Z,6.20
2023-03-15T13:07:07.499Z,3.80
2023-03-15T13:10:04.893Z,5.32
2023-03-15T13:13:00.398Z,6.72
2023-03-15T13:16:15.604Z,3.88
2023-03-15T13:19:14.856Z,5.55
2023-03-15T13:21:59.673Z,11.10
2023-03-15T13:24:38.115Z,7.60
2023-03-15T13:27:34.598Z,4.20
2023-03-15T13:30:39.165Z,6.60
2023-03-15T13:33:19.422Z,11.27
2023-03-15T13:36:05.834Z,4.32
2023-03-15T13:38:41.751Z,6.75
2023-03-15T13:41:19.701Z,3.97
2023-03-15T13:43:57.316Z,5.40
2023-03-15T13:46:31.310Z,5.55
2023-03-15T13:49:04.095Z,5.47
2023-03-15T13:51:39.298Z,6.30
2023-03-15T13:54:25.398Z,4.10
2023-03-15T13:57:07.311Z,7.18
2023-03-15T13:59:56.274Z,2.08
2023-03-15T14:02:46.154Z,5.80
2023-03-15T14:05:27.582Z,8.30
2023-03-15T14:08:05.898Z,8.05
2023-03-15T14:10:40.456Z,10.43
2023-03-15T14:13:25.778Z,3.50
2023-03-15T14:16:05.571Z,7.55
2023-03-15T14:18:40.547Z,4.32
2023-03-15T14:21:17.200Z,2.38
2023-03-15T14:23:50.069Z,5.45
2023-03-15T14:26:30.502Z,3.25
2023-03-15T14:31:48.469Z,2.78
2023-03-15T14:34:25.545Z,5.93
2023-03-15T14:36:59.913Z,3.08
2023-03-15T14:39:39.631Z,1.17
2023-03-15T14:42:12.585Z,4.75
2023-03-15T14:44:45.199Z,6.90
2023-03-15T14:47:18.131Z,7.65
2023-03-15T14:49:53.276Z,4.78
2023-03-15T14:52:27.159Z,4.90
2023-03-15T14:54:59.671Z,3.50
2023-03-15T14:57:32.461Z,2.15
2023-03-15T15:00:07.060Z,2.53
2023-03-15T15:02:41.082Z,9.90
2023-03-15T15:05:20.593Z,3.92
2023-03-15T15:07:59.539Z,3.95
2023-03-15T15:10:34.842Z,6.95
2023-03-15T15:13:11.160Z,4.18
2023-03-15T15:15:54.771Z,1.08
2023-03-15T15:18:31.204Z,3.05
2023-03-15T15:21:13.449Z,1.05
2023-03-15T15:23:57.959Z,12.57
2023-03-15T15:26:32.325Z,6.78
2023-03-15T15:29:05.224Z,4.03
2023-03-15T15:31:37.824Z,5.40
2023-03-15T15:34:11.833Z,3.53
2023-03-15T15:36:45.207Z,2.88
2023-03-15T15:39:23.519Z,3.45
2023-03-15T15:41:56.151Z,5.88
2023-03-15T15:44:28.974Z,3.72
2023-03-15T15:47:01.576Z,4.15
2023-03-15T15:49:34.484Z,7.65
2023-03-15T15:52:12.137Z,5.40
2023-03-15T15:54:46.991Z,11.13
2023-03-15T15:57:22.199Z,5.47
2023-03-15T15:59:54.990Z,8.02
2023-03-15T16:02:27.569Z,4.10
2023-03-15T16:05:00.769Z,11.43
2023-03-15T16:07:33.288Z,6.93
2023-03-15T16:10:27.137Z,8.75
2023-03-15T16:12:59.664Z,3.10
2023-03-15T16:15:32.867Z,2.90
2023-03-15T16:18:18.171Z,4.80
2023-03-15T16:20:51.294Z,1.42
2023-03-15T16:23:25.480Z,6.05
2023-03-15T16:25:58.469Z,9.07
2023-03-15T16:28:31.021Z,3.10
2023-03-15T16:31:03.923Z,3.67
2023-03-15T16:33:36.469Z,15.50
2023-03-15T16:36:20.173Z,5.78
2023-03-15T16:38:52.888Z,6.72
2023-03-15T16:41:25.789Z,12.15
2023-03-15T16:43:58.468Z,10.70
2023-03-15T16:46:33.667Z,10.32
2023-03-15T16:49:06.342Z,13.10
2023-03-15T16:51:44.304Z,12.32
2023-03-15T16:54:27.557Z,10.15
2023-03-15T16:57:22.873Z,10.48
2023-03-15T16:59:55.568Z,12.23
2023-03-15T17:02:30.800Z,5.90
2023-03-15T17:05:03.536Z,12.57
2023-03-15T17:07:38.358Z,7.70
2023-03-15T17:10:23.330Z,9.52
2023-03-15T17:12:59.474Z,13.13
2023-03-15T17:15:33.891Z,8.65
2023-03-15T17:18:26.873Z,12.55
2023-03-15T17:20:59.458Z,4.55
2023-03-15T17:23:32.340Z,9.50
2023-03-15T17:26:10.166Z,13.23
2023-03-15T17:28:49.386Z,8.32
2023-03-15T17:31:25.362Z,13.85
2023-03-15T17:33:58.885Z,16.13
2023-03-15T17:36:39.703Z,15.65
2023-03-15T17:39:17.166Z,6.97
2023-03-15T17:41:52.145Z,18.00
2023-03-15T17:44:25.148Z,5.20
2023-03-15T17:46:59.238Z,16.63
2023-03-15T17:49:32.230Z,7.22
2023-03-15T17:52:05.608Z,22.15
2023-03-15T17:54:39.754Z,12.60
2023-03-15T17:57:13.062Z,20.35
2023-03-15T17:59:46.007Z,15.15
2023-03-15T18:02:18.614Z,22.15
2023-03-15T18:04:51.438Z,10.50
2023-03-15T18:07:26.238Z,12.93
2023-03-15T18:09:59.903Z,10.90
2023-03-15T18:12:32.945Z,6.90
2023-03-15T18:15:06.281Z,12.38
2023-03-15T18:17:38.853Z,6.70
2023-03-15T18:20:13.942Z,9.13
2023-03-15T18:22:46.575Z,9.15
2023-03-15T18:25:20.844Z,2.83
2023-03-15T18:27:54.134Z,6.97
2023-03-15T18:30:29.289Z,9.23
2023-03-15T18:33:02.029Z,14.88
2023-03-15T18:35:36.578Z,18.17
2023-03-15T18:38:09.134Z,15.40
2023-03-15T18:40:42.459Z,9.30
2023-03-15T18:43:15.158Z,16.83
2023-03-15T18:45:47.990Z,17.48
2023-03-15T18:48:27.893Z,16.67
2023-03-15T18:51:12.224Z,13.15
2023-03-15T18:53:45.593Z,16.90
2023-03-15T18:56:23.989Z,21.17
2023-03-15T18:58:56.559Z,19.75
2023-03-15T19:01:29.677Z,12.63
2023-03-15T19:04:02.267Z,22.75
2023-03-15T19:06:35.590Z,16.70
2023-03-15T19:09:08.053Z,24.42
2023-03-15T19:11:43.560Z,26.02
2023-03-15T19:14:16.089Z,18.45
2023-03-15T19:16:49.021Z,18.65
2023-03-15T19:19:21.587Z,16.55
2023-03-15T19:21:56.164Z,18.42
2023-03-15T19:24:29.886Z,11.05
2023-03-15T19:27:05.957Z,8.98
2023-03-15T19:29:38.463Z,14.90
2023-03-15T19:32:11.283Z,18.38
2023-03-15T19:34:43.884Z,6.82
2023-03-15T19:37:16.875Z,13.85
2023-03-15T19:39:49.426Z,11.70
2023-03-15T19:42:22.255Z,10.65
2023-03-15T19:44:54.800Z,9.38
2023-03-15T19:47:27.620Z,21.73
2023-03-15T19:50:00.445Z,21.52
2023-03-15T19:52:33.647Z,11.38
2023-03-15T19:55:08.259Z,12.90
2023-03-15T19:57:41.167Z,17.50
2023-03-15T20:00:19.135Z,13.00
2023-03-15T20:02:52.958Z,22.52
2023-03-15T20:05:25.672Z,9.98
2023-03-15T20:07:58.715Z,12.52
2023-03-15T20:10:31.321Z,11.02
2023-03-15T20:13:04.184Z,10.85
2023-03-15T20:15:37.280Z,23.73
2023-03-15T20:18:13.097Z,9.30
2023-03-15T20:20:45.634Z,15.35
2023-03-15T20:23:19.085Z,25.00
2023-03-15T20:25:51.740Z,19.00
2023-03-15T20:28:24.598Z,17.88
2023-03-15T20:30:57.172Z,18.17
2023-03-15T20:33:29.986Z,14.85
2023-03-15T20:36:02.633Z,16.73
2023-03-15T20:38:37.369Z,19.98
2023-03-15T20:41:10.121Z,25.73
2023-03-15T20:43:43.183Z,24.17
2023-03-15T20:46:18.942Z,22.85
2023-03-15T20:48:52.451Z,22.05
2023-03-15T20:51:25.010Z,20.33
2023-03-15T20:53:57.989Z,28.05
2023-03-15T20:56:30.716Z,12.90
2023-03-15T20:59:03.898Z,12.77
2023-03-15T21:01:36.416Z,27.85
2023-03-15T21:04:09.267Z,20.00
2023-03-15T21:06:42.021Z,33.20
2023-03-15T21:09:15.349Z,29.77
2023-03-15T21:11:47.984Z,33.90
2023-03-15T21:14:21.106Z,33.03
2023-03-15T21:16:53.755Z,27.52
2023-03-15T21:19:26.886Z,18.65
2023-03-15T21:22:01.037Z,12.85
2023-03-15T21:24:53.020Z,12.60
2023-03-15T21:27:42.587Z,25.95
2023-03-15T21:30:18.579Z,34.45
2023-03-15T21:32:57.410Z,28.60
2023-03-15T21:35:32.632Z,10.15
2023-03-15T21:38:05.232Z,16.33
2023-03-15T21:40:40.617Z,27.13
2023-03-15T21:43:13.952Z,23.38
2023-03-15T21:45:58.755Z,16.30
2023-03-15T21:48:35.180Z,18.30
2023-03-15T21:51:09.064Z,10.77
2023-03-15T21:53:41.764Z,12.93
2023-03-15T21:56:17.858Z,9.02
2023-03-15T21:58:50.357Z,16.85
2023-03-15T22:01:23.504Z,21.40
2023-03-15T22:03:56.051Z,6.28
2023-03-15T22:06:29.390Z,17.33
2023-03-15T22:09:01.923Z,12.77
2023-03-15T22:11:34.794Z,9.85
2023-03-15T22:14:07.268Z,16.60
2023-03-15T22:16:40.364Z,8.65
2023-03-15T22:19:12.878Z,12.40
2023-03-15T22:21:45.675Z,14.82
2023-03-15T22:24:18.161Z,13.27
2023-03-15T22:26:53.008Z,14.20
2023-03-15T22:29:25.551Z,18.60
2023-03-15T22:31:58.579Z,16.00
2023-03-15T22:34:34.368Z,15.50
2023-03-15T22:37:07.278Z,12.00
2023-03-15T22:39:40.385Z,14.52
2023-03-15T22:42:13.141Z,10.10
2023-03-15T22:44:45.680Z,11.38
2023-03-15T22:47:18.445Z,21.35
2023-03-15T22:49:52.197Z,16.33
2023-03-15T22:52:25.566Z,18.65
2023-03-15T22:54:58.071Z,17.17
2023-03-15T22:57:30.863Z,15.73
2023-03-15T23:00:13.741Z,11.63
2023-03-15T23:02:46.750Z,10.15
2023-03-15T23:05:19.776Z,17.80
2023-03-15T23:07:52.576Z,17.98
2023-03-15T23:10:25.685Z,13.70
2023-03-15T23:12:58.724Z,13.40
2023-03-15T23:15:31.388Z,18.38
2023-03-15T23:18:05.367Z,16.98
2023-03-15T23:20:38.001Z,14.35
2023-03-15T23:23:10.863Z,10.52
2023-03-15T23:25:45.933Z,9.80
2023-03-15T23:28:21.780Z,16.00
2023-03-15T23:30:54.339Z,18.75
2023-03-15T23:33:27.343Z,16.08
2023-03-15T23:36:01.195Z,14.35
2023-03-15T23:38:34.846Z,23.23
2023-03-15T23:41:07.897Z,20.40
2023-03-15T23:43:41.616Z,14.75
2023-03-15T23:46:14.592Z,25.48
2023-03-15T23:48:47.484Z,22.52
2023-03-15T23:51:22.259Z,18.90
2023-03-15T23:53:55.211Z,26.23
2023-03-15T23:56:28.712Z,20.80
2023-03-15T23:59:01.588Z,18.10
